createdAt,value
2022-10-19T00:04:51.422Z,100528.97
2022-10-19T00:09:54.210Z,100529.31
2022-10-19T00:14:58.572Z,100534.69
2022-10-19T00:20:01.271Z,100529.69
2022-10-19T00:25:04.281Z,100536.22
2022-10-19T00:30:09.863Z,100531.88
2022-10-19T00:35:12.591Z,100525.84
2022-10-19T00:40:15.305Z,100519.16
2022-10-19T00:45:19.387Z,100529.22
2022-10-19T00:50:22.515Z,100525.69
2022-10-19T00:55:25.606Z,100523.22
2022-10-19T01:00:29.809Z,100523.38
2022-10-19T01:05:33.762Z,100518.50
2022-10-19T01:10:47.010Z,100519.34
2022-10-19T01:15:55.903Z,100518.50
2022-10-19T01:21:15.598Z,100513.50
2022-10-19T01:26:31.570Z,100515.50
2022-10-19T01:31:39.330Z,100506.81
2022-10-19T01:36:44.432Z,100511.31
2022-10-19T01:41:50.224Z,100509.00
2022-10-19T01:46:56.674Z,100512.69
2022-10-19T01:52:01.898Z,100496.75
2022-10-19T01:57:07.259Z,100492.59
2022-10-19T02:02:12.041Z,100494.59
2022-10-19T02:07:14.856Z,100489.41
2022-10-19T02:12:18.272Z,100487.09
2022-10-19T02:17:24.935Z,100476.69
2022-10-19T02:22:27.689Z,100475.03
2022-10-19T02:27:30.783Z,100466.97
2022-10-19T02:32:35.141Z,100463.63
2022-10-19T02:37:38.175Z,100464.63
2022-10-19T02:42:44.343Z,100465.97
2022-10-19T02:47:51.137Z,100457.94
2022-10-19T02:52:53.822Z,100442.50
2022-10-19T02:57:57.266Z,100435.50
2022-10-19T03:03:02.854Z,100437.50
2022-10-19T03:08:06.206Z,100449.22
2022-10-19T03:13:08.974Z,100443.22
2022-10-19T03:18:13.030Z,100439.88
2022-10-19T03:23:15.905Z,100444.56
2022-10-19T03:28:18.726Z,100437.53
2022-10-19T03:33:23.139Z,100429.81
2022-10-19T03:38:25.847Z,100437.22
2022-10-19T03:43:28.618Z,100440.88
2022-10-19T03:48:32.664Z,100443.75
2022-10-19T03:53:35.858Z,100449.94
2022-10-19T03:58:39.315Z,100443.59
2022-10-19T04:03:43.548Z,100461.84
2022-10-19T04:08:49.990Z,100458.84
2022-10-19T04:13:53.726Z,100469.56
2022-10-19T04:18:57.918Z,100468.91
2022-10-19T04:24:02.303Z,100462.88
2022-10-19T04:29:05.213Z,100470.41
2022-10-19T04:34:09.732Z,100453.31
2022-10-19T04:39:12.855Z,100463.56
2022-10-19T04:44:15.685Z,100454.00
2022-10-19T04:49:20.497Z,100449.13
2022-10-19T04:54:23.418Z,100445.13
2022-10-19T04:59:26.226Z,100453.34
2022-10-19T05:04:30.335Z,100450.84
2022-10-19T05:09:33.149Z,100434.91
2022-10-19T05:14:37.869Z,100436.94
2022-10-19T05:19:44.650Z,100435.63
2022-10-19T05:24:47.366Z,100431.09
2022-10-19T05:29:50.063Z,100419.88
2022-10-19T05:34:54.090Z,100414.84
2022-10-19T05:39:56.770Z,100429.25
2022-10-19T05:44:59.424Z,100427.59
2022-10-19T05:50:03.482Z,100408.16
2022-10-19T05:55:07.322Z,100426.25
2022-10-19T06:00:11.706Z,100426.41
2022-10-19T06:05:18.640Z,100434.63
2022-10-19T06:10:21.594Z,100428.44
2022-10-19T06:15:24.266Z,100429.41
2022-10-19T06:20:29.448Z,100425.75
2022-10-19T06:25:32.313Z,100419.53
2022-10-19T06:30:35.066Z,100422.88
2022-10-19T06:35:42.256Z,100415.88
2022-10-19T06:40:45.023Z,100422.88
2022-10-19T06:45:47.665Z,100427.06
2022-10-19T06:50:58.330Z,100428.25
2022-10-19T06:56:01.904Z,100437.28
2022-10-19T07:01:07.467Z,100438.78
2022-10-19T07:06:13.100Z,100436.28
2022-10-19T07:11:18.404Z,100430.09
2022-10-19T07:16:21.758Z,100426.56
2022-10-19T07:21:25.988Z,100419.69
2022-10-19T07:26:30.480Z,100427.25
2022-10-19T07:31:33.521Z,100427.06
2022-10-19T07:36:37.859Z,100430.75
2022-10-19T07:41:40.765Z,100447.19
2022-10-19T07:46:44.020Z,100442.13
2022-10-19T07:51:48.191Z,100446.63
2022-10-19T07:56:50.911Z,100442.00
2022-10-19T08:01:54.535Z,100439.41
2022-10-19T08:06:58.630Z,100437.09
2022-10-19T08:12:01.387Z,100437.38
2022-10-19T08:17:04.058Z,100437.38
2022-10-19T08:22:08.208Z,100438.03
2022-10-19T08:27:10.923Z,100438.97
2022-10-19T08:32:22.916Z,100442.47
2022-10-19T08:37:40.789Z,100425.50
2022-10-19T08:42:53.179Z,100419.19
2022-10-19T08:48:01.326Z,100410.72
2022-10-19T08:53:07.160Z,100405.72
2022-10-19T08:58:20.878Z,100396.28
2022-10-19T09:03:37.574Z,100390.69
2022-10-19T09:08:51.914Z,100390.78
2022-10-19T09:14:05.616Z,100385.53
2022-10-19T09:19:14.367Z,100386.19
2022-10-19T09:24:28.932Z,100380.97
2022-10-19T09:29:38.161Z,100373.25
2022-10-19T09:34:44.889Z,100359.66
2022-10-19T09:39:53.962Z,100358.78
2022-10-19T09:44:59.605Z,100368.69
2022-10-19T09:50:15.563Z,100358.16
2022-10-19T09:55:28.601Z,100364.72
2022-10-19T10:00:37.597Z,100361.22
2022-10-19T10:05:41.045Z,100361.38
2022-10-19T10:10:47.939Z,100354.97
2022-10-19T10:15:53.326Z,100346.28
2022-10-19T10:21:02.577Z,100349.97
2022-10-19T10:26:17.729Z,100341.25
2022-10-19T10:31:23.407Z,100358.81
2022-10-19T10:36:26.819Z,100355.63
2022-10-19T10:41:35.713Z,100341.38
2022-10-19T10:46:43.440Z,100346.28
2022-10-19T10:51:52.200Z,100327.47
2022-10-19T10:57:13.715Z,100317.09
2022-10-19T11:02:27.436Z,100326.00
2022-10-19T11:07:31.556Z,100316.72
2022-10-19T11:12:39.542Z,100312.53
2022-10-19T11:17:52.403Z,100308.25
2022-10-19T11:23:02.553Z,100293.31
2022-10-19T11:28:19.414Z,100276.16
2022-10-19T11:33:34.305Z,100269.78
2022-10-19T11:38:44.058Z,100264.41
2022-10-19T11:43:57.113Z,100268.75
2022-10-19T11:49:07.700Z,100257.81
2022-10-19T11:54:19.482Z,100257.78
2022-10-19T11:59:28.911Z,100252.03
2022-10-19T12:04:42.243Z,100246.53
2022-10-19T12:09:51.235Z,100221.91
2022-10-19T12:15:00.676Z,100223.22
2022-10-19T12:20:06.701Z,100212.44
2022-10-19T12:25:14.695Z,100202.28
2022-10-19T12:30:21.864Z,100203.16
2022-10-19T12:35:36.992Z,100192.16
2022-10-19T12:40:41.658Z,100180.41
2022-10-19T12:45:49.729Z,100178.53
2022-10-19T12:51:16.982Z,100162.38
2022-10-19T12:56:24.330Z,100152.84
2022-10-19T13:01:30.448Z,100148.28
2022-10-19T13:06:35.518Z,100141.44
2022-10-19T13:12:21.418Z,100140.41
2022-10-19T13:17:46.193Z,100128.38
2022-10-19T13:22:50.872Z,100126.25
2022-10-19T13:27:58.343Z,100116.91
2022-10-19T13:33:41.007Z,100099.28
2022-10-19T13:38:44.631Z,100108.56
2022-10-19T13:44:00.662Z,100098.81
2022-10-19T13:49:22.866Z,100090.09
2022-10-19T13:54:35.637Z,100091.16
2022-10-19T13:59:53.782Z,100100.03
2022-10-19T14:05:10.877Z,100095.69
2022-10-19T14:10:17.441Z,100097.56
2022-10-19T14:15:25.267Z,100085.94
2022-10-19T14:20:32.530Z,100088.84
2022-10-19T14:25:35.334Z,100088.84
2022-10-19T14:30:44.948Z,100086.16
2022-10-19T14:35:50.602Z,100086.16
2022-10-19T14:40:53.383Z,100068.56
2022-10-19T14:46:14.432Z,100068.56
2022-10-19T14:51:30.047Z,100056.97
2022-10-19T14:56:35.312Z,100050.72
2022-10-19T15:01:38.040Z,100045.34
2022-10-19T15:06:43.125Z,100030.91
2022-10-19T15:11:49.688Z,100035.44
2022-10-19T15:16:54.069Z,100028.38
2022-10-19T15:22:19.515Z,100024.47
2022-10-19T15:27:23.632Z,100025.34
2022-10-19T15:32:29.203Z,100018.56
2022-10-19T15:37:33.363Z,100008.19
2022-10-19T15:42:38.732Z,100006.53
2022-10-19T15:48:11.514Z,99999.88
2022-10-19T15:53:15.631Z,99999.03
2022-10-19T15:58:18.883Z,99994.88
2022-10-19T16:03:21.559Z,99983.69
2022-10-19T16:08:25.685Z,99974.34
2022-10-19T16:13:28.460Z,99972.88
2022-10-19T16:18:31.131Z,99972.41
2022-10-19T16:23:39.341Z,99984.00
2022-10-19T16:28:45.151Z,99971.13
2022-10-19T16:33:47.849Z,99962.84
2022-10-19T16:38:51.876Z,99948.75
2022-10-19T16:43:55.603Z,99952.84
2022-10-19T16:48:58.398Z,99938.53
2022-10-19T16:54:02.691Z,99939.53
2022-10-19T16:59:06.993Z,99948.41
2022-10-19T17:04:09.673Z,99937.00
2022-10-19T17:09:40.279Z,99955.19
2022-10-19T17:14:37.303Z,99951.22
2022-10-19T17:19:40.290Z,99949.94
2022-10-19T17:24:46.219Z,99947.84
2022-10-19T17:29:49.021Z,99931.91
2022-10-19T17:34:52.051Z,99935.44
2022-10-19T17:39:56.107Z,99938.31
2022-10-19T17:44:58.909Z,99929.63
2022-10-19T17:50:01.632Z,99932.50
2022-10-19T17:55:12.219Z,99930.19
2022-10-19T18:00:16.100Z,99913.25
2022-10-19T18:05:18.846Z,99916.13
2022-10-19T18:10:22.963Z,99922.72
2022-10-19T18:15:25.734Z,99911.97
2022-10-19T18:20:28.439Z,99914.22
2022-10-19T18:25:52.995Z,99920.59
2022-10-19T18:30:55.206Z,99917.25
2022-10-19T18:35:59.126Z,99911.91
2022-10-19T18:41:04.116Z,99890.75
2022-10-19T18:46:08.152Z,99897.19
2022-10-19T18:51:10.906Z,99898.22
2022-10-19T18:56:17.035Z,99903.13
2022-10-19T19:01:22.833Z,99894.88
2022-10-19T19:06:28.892Z,99882.84
2022-10-19T19:11:36.859Z,99879.56
2022-10-19T19:16:40.962Z,99872.06
2022-10-19T19:21:44.981Z,99864.84
2022-10-19T19:26:51.027Z,99847.25
2022-10-19T19:31:54.383Z,99841.22
2022-10-19T19:36:57.102Z,99842.28
2022-10-19T19:42:01.110Z,99836.25
2022-10-19T19:47:03.826Z,99835.81
2022-10-19T19:52:06.598Z,99829.16
2022-10-19T19:57:11.286Z,99839.09
2022-10-19T20:02:16.318Z,99848.13
2022-10-19T20:07:19.002Z,99822.72
2022-10-19T20:12:23.149Z,99820.22
2022-10-19T20:17:25.931Z,99822.06
2022-10-19T20:22:28.656Z,99813.59
2022-10-19T20:27:35.628Z,99807.56
2022-10-19T20:32:39.135Z,99802.38
2022-10-19T20:37:41.859Z,99794.53
2022-10-19T20:42:46.127Z,99798.22
2022-10-19T20:47:48.942Z,99796.59
2022-10-19T20:52:51.720Z,99787.88
2022-10-19T20:57:55.877Z,99767.63
2022-10-19T21:02:59.350Z,99769.50
2022-10-19T21:08:02.223Z,99753.56
2022-10-19T21:13:06.362Z,99748.59
2022-10-19T21:18:09.160Z,99749.41
2022-10-19T21:23:11.834Z,99750.63
2022-10-19T21:28:15.895Z,99743.63
2022-10-19T21:33:18.726Z,99739.06
2022-10-19T21:38:21.437Z,99745.66
2022-10-19T21:43:25.710Z,99749.38
2022-10-19T21:48:28.405Z,99742.53
2022-10-19T21:53:31.092Z,99739.44
2022-10-19T21:58:35.258Z,99742.72
2022-10-19T22:03:38.000Z,99737.34
2022-10-19T22:08:41.619Z,99723.31
2022-10-19T22:13:45.703Z,99730.09
2022-10-19T22:18:48.817Z,99735.44
2022-10-19T22:23:53.213Z,99722.44
2022-10-19T22:28:58.070Z,99719.94
2022-10-19T22:34:01.154Z,99707.53
2022-10-19T22:39:04.510Z,99701.16
2022-10-19T22:44:08.674Z,99699.88
2022-10-19T22:49:11.726Z,99685.63
2022-10-19T22:54:14.466Z,99678.63
2022-10-19T22:59:18.632Z,99674.28
2022-10-19T23:04:21.455Z,99663.56
2022-10-19T23:09:24.346Z,99656.72
2022-10-19T23:14:28.486Z,99645.13
2022-10-19T23:19:31.194Z,99644.31
2022-10-19T23:24:33.949Z,99636.09
2022-10-19T23:29:38.051Z,99616.03
2022-10-19T23:34:43.162Z,99599.13
2022-10-19T23:39:48.659Z,99596.66
2022-10-19T23:44:52.767Z,99592.28
2022-10-19T23:49:55.495Z,99586.94
2022-10-19T23:54:58.222Z,99585.28
